ETIH

Hohenfels Army Air Field Airport

Germany
METAR ETIH 221756Z AUTO 27004KT 9999 CLR 22/11 A2995 RMK AO2 SLP134 T02170111 10266 20217 55001 $
Observed Flight Rules
Apr-22 @ 17:56 UTC (25 minutes ago) Visual Flight Rules
Wind Visibility Clouds
270° at 4 knots 10,000+ meters
  • Clear skies
Temperatures Readings
Current 22°C / 72°F
Dewpoint 11°C / 52°F
Humidity 50%
Altimeter 29.95" Hg
Pressure 1013.4 hPa
Elevation 442
METAR ETIH 221756Z AUTO 27004KT 9999 CLR 22/11 A2995 RMK AO2 SLP134 T02170111 10266 20217 55001 $
Observed Flight Rules
Apr-22 @ 17:56 UTC
(25 minutes ago)
VFR
Wind Visibility
270° at 4 knots 10,000+ meters
Clouds
  • Clear skies
Temperature Dewpoint
22°C / 72°F 11°C / 52°F
Humidity Altimeter Pressure
50% 29.95" Hg 1013.4 hPa